Terminal Aerodrome Forecast
Issued by NWS Twin Cities, MN

Home | Current Version | Previous Version | Graphics & Text | Print | Product List | Glossary On
Versions: 1 2 3 4 5 6 7 8 9 10 11 12 13 14 15
000
FTUS43 KMPX 181700
TAFSTC
TAF
KSTC 181734Z 1818/1918 25005KT P6SM BKN035 OVC110
      TEMPO 1819/1823 2SM TSRA SCT007CB BKN025
     FM182300 27007KT P6SM -SHRA VCTS BKN035CB
     FM190200 30004KT P6SM SCT050 BKN150
     FM190700 31003KT 2SM BR SCT001
      TEMPO 1908/1912 1/2SM FG VV001
     FM191500 24006KT 5SM BR BKN007 OVC015=

USA.gov is the U.S. government's official web portal to all federal, state and local government web resources and services.